Time;durP1;ratioP1;P1;durP2;ratioP2;P2;SDS_P1;SDS_P2;PMS_P1;PMS_P2;Temp;Humidity;BMP_temperature;BMP_pressure;BME280_temperature;BME280_humidity;BME280_pressure;Samples;Min_cycle;Max_cycle;Signal;HPM_P1;HPM_P2
2022/12/21 06:56:16;;;;;;;9.25;6.10;;;;;;;;;;10517213;28;20432;-80
2022/12/21 07:01:21;;;;;;;7.95;4.88;;;;;;;;;;10511390;28;20057;-80
2022/12/21 07:06:23;;;;;;;5.80;3.85;;;;;;;;;;10513622;28;20110;-80
2022/12/21 07:11:26;;;;;;;7.35;4.47;;;;;;;;;;10513409;28;20025;-80
2022/12/21 07:16:27;;;;;;;7.00;5.05;;;;;;;;;;10513806;28;20041;-81
2022/12/21 07:21:28;;;;;;;6.90;4.47;;;;;;;;;;10506958;28;20039;-81
2022/12/21 07:26:29;;;;;;;8.45;6.28;;;;;;;;;;10515322;28;20509;-81
2022/12/21 07:31:30;;;;;;;;;;;;;;;;;;10513830;28;20059;-80
2022/12/21 07:36:31;;;;;;;6.65;4.72;;;;;;;;;;10523300;28;19928;-79
2022/12/21 07:41:32;;;;;;;7.20;4.43;;;;;;;;;;10526256;28;20037;-81
2022/12/21 07:46:33;;;;;;;5.28;3.40;;;;;;;;;;10511634;28;20395;-80
2022/12/21 07:51:34;;;;;;;7.43;4.68;;;;;;;;;;10510626;28;20068;-79
2022/12/21 07:56:35;;;;;;;8.45;5.57;;;;;;;;;;10509295;28;20047;-80
2022/12/21 08:01:36;;;;;;;7.60;4.90;;;;;;;;;;10511941;28;20040;-80
2022/12/21 08:06:37;;;;;;;5.97;4.07;;;;;;;;;;10479267;28;20021;-79
2022/12/21 08:11:38;;;;;;;9.95;5.50;;;;;;;;;;10467152;28;20044;-78
2022/12/21 08:16:39;;;;;;;8.88;5.72;;;;;;;;;;10470496;28;20640;-79
2022/12/21 08:21:41;;;;;;;11.63;6.80;;;;;;;;;;10470749;28;20036;-78
2022/12/21 08:26:42;;;;;;;10.73;6.35;;;;;;;;;;10470401;28;20391;-80
2022/12/21 08:31:43;;;;;;;8.35;5.78;;;;;;;;;;10469245;28;20086;-80
2022/12/21 08:36:44;;;;;;;11.13;7.75;;;;;;;;;;10470711;28;20078;-81
2022/12/21 08:41:45;;;;;;;9.27;6.88;;;;;;;;;;10469118;28;20017;-79
2022/12/21 08:46:46;;;;;;;10.27;6.05;;;;;;;;;;10473638;28;20097;-77
2022/12/21 08:51:47;;;;;;;11.40;7.00;;;;;;;;;;10470795;28;20135;-79
2022/12/21 08:56:48;;;;;;;11.48;7.70;;;;;;;;;;10467470;28;20056;-81
2022/12/21 09:01:51;;;;;;;10.60;7.72;;;;;;;;;;10456392;28;20041;-82
2022/12/21 09:06:52;;;;;;;9.68;6.63;;;;;;;;;;10473393;28;20093;-80
2022/12/21 09:11:53;;;;;;;9.02;6.65;;;;;;;;;;10472748;28;20086;-80
2022/12/21 09:16:54;;;;;;;7.47;4.47;;;;;;;;;;10470515;28;20066;-80
2022/12/21 09:21:55;;;;;;;8.75;6.68;;;;;;;;;;10472158;28;20488;-79
2022/12/21 09:26:56;;;;;;;11.32;6.85;;;;;;;;;;10472342;28;20049;-81
2022/12/21 09:31:57;;;;;;;7.57;4.75;;;;;;;;;;10470759;28;20061;-81
2022/12/21 09:36:59;;;;;;;8.20;4.93;;;;;;;;;;10462342;28;20079;-82
2022/12/21 09:42:07;;;;;;;7.80;4.05;;;;;;;;;;10464231;28;20087;-80
2022/12/21 09:47:11;;;;;;;5.93;3.83;;;;;;;;;;10464561;28;20086;-80
2022/12/21 09:52:21;;;;;;;8.95;4.72;;;;;;;;;;10463201;28;20044;-80
2022/12/21 09:57:25;;;;;;;10.90;5.32;;;;;;;;;;10464360;28;20323;-81
2022/12/21 10:02:36;;;;;;;9.02;5.28;;;;;;;;;;10466743;28;20391;-79
2022/12/21 10:08:04;;;;;;;12.80;7.47;;;;;;;;;;10468758;28;20108;-81
2022/12/21 10:13:11;;;;;;;9.15;5.70;;;;;;;;;;10474025;28;20025;-79
2022/12/21 10:18:31;;;;;;;16.92;12.63;;;;;;;;;;10481363;28;20052;-83
2022/12/21 10:23:34;;;;;;;9.20;6.18;;;;;;;;;;10481894;28;20032;-79
2022/12/21 10:28:35;;;;;;;8.30;5.90;;;;;;;;;;10464343;28;20090;-81
2022/12/21 10:33:41;;;;;;;15.27;10.65;;;;;;;;;;10464993;28;20029;-79
2022/12/21 10:38:42;;;;;;;7.45;3.60;;;;;;;;;;10464643;28;20413;-78
2022/12/21 10:43:47;;;;;;;7.57;5.07;;;;;;;;;;10465817;28;20439;-79
2022/12/21 10:48:49;;;;;;;8.40;5.68;;;;;;;;;;10462674;28;20021;-80
2022/12/21 10:54:02;;;;;;;9.65;6.45;;;;;;;;;;10470686;28;20037;-79
2022/12/21 10:59:06;;;;;;;11.07;7.10;;;;;;;;;;10473702;28;20418;-80
2022/12/21 11:04:08;;;;;;;13.25;8.93;;;;;;;;;;10476754;28;20025;-79
2022/12/21 11:09:29;;;;;;;12.60;8.40;;;;;;;;;;10476650;28;20574;-78
2022/12/21 11:14:37;;;;;;;15.60;6.80;;;;;;;;;;10492858;28;20022;-78
2022/12/21 11:19:38;;;;;;;10.50;7.22;;;;;;;;;;10480423;28;20029;-79
2022/12/21 11:24:46;;;;;;;11.00;6.90;;;;;;;;;;10477824;28;20049;-79
2022/12/21 11:30:01;;;;;;;13.75;8.30;;;;;;;;;;10477987;28;20092;-79
2022/12/21 11:35:03;;;;;;;12.43;6.68;;;;;;;;;;10478909;28;20047;-79
2022/12/21 11:40:13;;;;;;;12.02;7.35;;;;;;;;;;10483817;28;20048;-79
2022/12/21 11:45:19;;;;;;;10.38;6.25;;;;;;;;;;10485721;28;20104;-80
2022/12/21 11:50:26;;;;;;;8.73;5.43;;;;;;;;;;10487378;28;20017;-79
2022/12/21 11:55:36;;;;;;;9.55;5.40;;;;;;;;;;10484054;28;20089;-79
2022/12/21 12:00:50;;;;;;;10.70;6.32;;;;;;;;;;10484547;28;20100;-79
2022/12/21 12:05:57;;;;;;;10.63;5.43;;;;;;;;;;10481141;28;20464;-79
2022/12/21 12:11:01;;;;;;;12.40;7.65;;;;;;;;;;10480308;28;20072;-79
2022/12/21 12:16:13;;;;;;;7.00;4.43;;;;;;;;;;10482222;28;20490;-82
2022/12/21 12:21:14;;;;;;;9.38;5.47;;;;;;;;;;10481982;28;20021;-81
2022/12/21 12:26:24;;;;;;;8.55;4.70;;;;;;;;;;10478451;28;20064;-81
2022/12/21 12:31:34;;;;;;;7.50;4.20;;;;;;;;;;10482049;28;20080;-80
2022/12/21 12:36:46;;;;;;;13.50;8.23;;;;;;;;;;10483821;28;20029;-79
2022/12/21 12:41:59;;;;;;;10.73;5.38;;;;;;;;;;10473899;28;20079;-80
2022/12/21 12:47:12;;;;;;;7.30;4.68;;;;;;;;;;10479776;28;20048;-82
2022/12/21 12:52:23;;;;;;;9.38;5.20;;;;;;;;;;10475574;28;20396;-80
2022/12/21 12:57:28;;;;;;;10.20;4.95;;;;;;;;;;10482090;28;20108;-80
2022/12/21 13:02:43;;;;;;;7.22;4.40;;;;;;;;;;10480196;28;20112;-79
2022/12/21 13:08:00;;;;;;;8.63;3.97;;;;;;;;;;10481592;28;20021;-80
2022/12/21 13:13:10;;;;;;;7.07;4.60;;;;;;;;;;10470578;28;20017;-81
2022/12/21 13:18:15;;;;;;;6.05;4.20;;;;;;;;;;10466043;28;20028;-81
2022/12/21 13:23:35;;;;;;;7.20;3.88;;;;;;;;;;10466892;28;20025;-82
2022/12/21 13:28:40;;;;;;;7.65;4.68;;;;;;;;;;10467742;28;20025;-79
2022/12/21 13:33:48;;;;;;;8.38;5.03;;;;;;;;;;10466667;28;20032;-78
2022/12/21 13:38:52;;;;;;;8.38;4.53;;;;;;;;;;10478065;28;20036;-78
2022/12/21 13:44:11;;;;;;;8.43;4.32;;;;;;;;;;10473624;28;20402;-78
2022/12/21 13:49:31;;;;;;;7.38;4.00;;;;;;;;;;10466366;28;20162;-79
2022/12/21 13:54:38;;;;;;;6.85;3.33;;;;;;;;;;10470935;28;20104;-78
2022/12/21 13:59:39;;;;;;;8.30;3.80;;;;;;;;;;10482839;28;20052;-80
2022/12/21 14:04:40;;;;;;;;;;;;;;;;;;10470944;28;20104;-80
2022/12/21 14:09:54;;;;;;;6.10;3.55;;;;;;;;;;10473977;28;19911;-79
2022/12/21 14:14:55;;;;;;;4.85;2.78;;;;;;;;;;10465558;28;20083;-79
2022/12/21 14:19:56;;;;;;;;;;;;;;;;;;10466398;28;20024;-79
2022/12/21 14:25:02;;;;;;;7.25;2.67;;;;;;;;;;10465180;28;19908;-79
2022/12/21 14:30:05;;;;;;;4.55;2.75;;;;;;;;;;10465919;28;20081;-79
2022/12/21 14:35:22;;;;;;;6.25;2.88;;;;;;;;;;10465226;28;20059;-79
2022/12/21 14:40:24;;;;;;;5.50;3.33;;;;;;;;;;10471102;28;20025;-79
2022/12/21 14:45:44;;;;;;;9.40;4.22;;;;;;;;;;10464765;28;20501;-80
2022/12/21 14:50:48;;;;;;;5.70;2.78;;;;;;;;;;10461266;28;20025;-80
2022/12/21 14:56:04;;;;;;;8.25;2.97;;;;;;;;;;10461350;28;20175;-79
2022/12/21 15:01:08;;;;;;;5.65;2.30;;;;;;;;;;10469773;28;20029;-79
2022/12/21 15:06:11;;;;;;;5.05;2.53;;;;;;;;;;10470088;28;20036;-80
2022/12/21 15:11:24;;;;;;;4.68;2.42;;;;;;;;;;10470864;28;20029;-79
2022/12/21 15:16:27;;;;;;;5.43;2.67;;;;;;;;;;10467566;28;20083;-79
2022/12/21 15:21:30;;;;;;;4.28;2.50;;;;;;;;;;10468913;28;20027;-80
2022/12/21 15:26:36;;;;;;;9.73;3.60;;;;;;;;;;10468005;28;20037;-78
2022/12/21 15:31:40;;;;;;;5.53;2.65;;;;;;;;;;10466796;28;20364;-78
2022/12/21 15:36:43;;;;;;;4.35;2.63;;;;;;;;;;10465927;28;20029;-80
2022/12/21 15:41:56;;;;;;;4.32;2.17;;;;;;;;;;10466834;28;20021;-79
2022/12/21 15:47:15;;;;;;;5.47;2.60;;;;;;;;;;10469037;28;20497;-81
2022/12/21 15:52:31;;;;;;;5.95;3.72;;;;;;;;;;10469803;28;20032;-78
2022/12/21 15:57:37;;;;;;;6.93;3.50;;;;;;;;;;10471401;28;20033;-79
2022/12/21 16:02:41;;;;;;;5.20;3.33;;;;;;;;;;10467183;28;20093;-79
2022/12/21 16:07:44;;;;;;;7.05;4.25;;;;;;;;;;10467709;28;20025;-78
2022/12/21 16:12:45;;;;;;;5.68;2.40;;;;;;;;;;10468238;28;20025;-81
2022/12/21 16:17:46;;;;;;;5.93;2.90;;;;;;;;;;10470427;28;20119;-81
2022/12/21 16:22:47;;;;;;;4.88;2.60;;;;;;;;;;10471664;28;20040;-81
2022/12/21 16:27:48;;;;;;;6.70;3.25;;;;;;;;;;10474320;28;20108;-81
2022/12/21 16:32:52;;;;;;;4.40;2.67;;;;;;;;;;10470869;28;20033;-80
2022/12/21 16:37:54;;;;;;;7.22;3.00;;;;;;;;;;10480566;28;20048;-84
2022/12/21 16:43:00;;;;;;;9.00;3.53;;;;;;;;;;10479892;28;20025;-79
2022/12/21 16:48:16;;;;;;;7.28;3.17;;;;;;;;;;10486106;28;20029;-79
2022/12/21 16:53:35;;;;;;;7.25;3.13;;;;;;;;;;10481255;28;20558;-80
2022/12/21 16:58:36;;;;;;;7.00;3.33;;;;;;;;;;10491081;28;20046;-78
2022/12/21 17:03:37;;;;;;;6.85;3.10;;;;;;;;;;10497198;28;20029;-77
2022/12/21 17:08:43;;;;;;;6.20;3.33;;;;;;;;;;10478159;28;20044;-78
2022/12/21 17:13:47;;;;;;;7.13;3.33;;;;;;;;;;10485488;28;20032;-78
2022/12/21 17:18:49;;;;;;;6.22;3.15;;;;;;;;;;10476832;28;20025;-81
2022/12/21 17:23:55;;;;;;;4.35;2.58;;;;;;;;;;10476246;28;20028;-80
2022/12/21 17:28:56;;;;;;;5.10;2.80;;;;;;;;;;10468787;28;20104;-79
2022/12/21 17:33:57;;;;;;;7.55;2.60;;;;;;;;;;10468386;28;20035;-79
2022/12/21 17:39:14;;;;;;;6.93;4.85;;;;;;;;;;10464317;28;20044;-80
2022/12/21 17:44:15;;;;;;;5.07;2.80;;;;;;;;;;10469779;28;20036;-78
2022/12/21 17:49:17;;;;;;;4.78;2.67;;;;;;;;;;10471389;28;20021;-78
2022/12/21 17:54:18;;;;;;;7.78;3.63;;;;;;;;;;10470695;28;20037;-79
2022/12/21 17:59:19;;;;;;;4.25;2.40;;;;;;;;;;10469836;28;20032;-78
2022/12/21 18:04:20;;;;;;;4.68;2.35;;;;;;;;;;10469814;28;20037;-78
2022/12/21 18:09:21;;;;;;;4.95;2.17;;;;;;;;;;10471605;28;20021;-78
2022/12/21 18:14:22;;;;;;;4.30;2.95;;;;;;;;;;10487351;28;20033;-79
2022/12/21 18:19:23;;;;;;;5.20;2.85;;;;;;;;;;10471967;28;20035;-79
2022/12/21 18:24:25;;;;;;;4.13;1.90;;;;;;;;;;10474333;28;20098;-77
2022/12/21 18:29:26;;;;;;;3.88;1.88;;;;;;;;;;10475870;28;20120;-79
2022/12/21 18:34:28;;;;;;;3.47;1.98;;;;;;;;;;10479159;28;20059;-78
2022/12/21 18:39:29;;;;;;;4.68;2.00;;;;;;;;;;10477787;28;20088;-79
2022/12/21 18:44:30;;;;;;;5.35;2.30;;;;;;;;;;10483165;28;20021;-79
2022/12/21 18:49:31;;;;;;;5.05;2.10;;;;;;;;;;10477941;28;20025;-79
2022/12/21 18:54:32;;;;;;;2.80;1.50;;;;;;;;;;10478115;28;20072;-79
2022/12/21 18:59:33;;;;;;;4.18;2.30;;;;;;;;;;10478034;28;20033;-80
2022/12/21 19:04:34;;;;;;;3.60;1.92;;;;;;;;;;10479234;28;20046;-79
2022/12/21 19:09:35;;;;;;;4.55;2.05;;;;;;;;;;10481279;28;20203;-78
2022/12/21 19:14:36;;;;;;;5.15;2.55;;;;;;;;;;10480936;28;20059;-80
2022/12/21 19:19:37;;;;;;;5.25;2.78;;;;;;;;;;10486491;28;20033;-79
2022/12/21 19:24:40;;;;;;;3.50;2.45;;;;;;;;;;10483383;28;20487;-79
2022/12/21 19:29:41;;;;;;;5.63;3.20;;;;;;;;;;10476499;28;20368;-80
2022/12/21 19:34:43;;;;;;;4.25;2.72;;;;;;;;;;10473150;28;20115;-78
2022/12/21 19:39:44;;;;;;;4.47;2.95;;;;;;;;;;10473745;28;20179;-78
2022/12/21 19:44:46;;;;;;;4.50;2.95;;;;;;;;;;10474587;28;20025;-78
2022/12/21 19:49:47;;;;;;;3.97;2.25;;;;;;;;;;10472650;28;20052;-78
2022/12/21 19:54:48;;;;;;;2.38;1.70;;;;;;;;;;10478383;28;20029;-79
2022/12/21 19:59:50;;;;;;;4.90;2.25;;;;;;;;;;10473786;28;20083;-79
2022/12/21 20:04:51;;;;;;;4.82;1.80;;;;;;;;;;10475915;28;20530;-78
2022/12/21 20:09:52;;;;;;;3.78;2.03;;;;;;;;;;10475877;28;20033;-77
2022/12/21 20:14:53;;;;;;;;;;;;;;;;;;10476391;28;20029;-78
2022/12/21 20:19:55;;;;;;;4.45;2.30;;;;;;;;;;10476540;28;19957;-81
